Provo, South Dakota
Current Conditions -  °F | °C
As of 5:53 PM on Monday 26 Jan 2015 (Local Time) from KCUT Reporting Station
Clear Clear  
Wind Chill: 45°   Ceiling: Unl
Heat Index: 48°   Visibility: 10mi
Dew Point: 25°   Wind: 6mph
Humidity: 41%   Direction: 250°WSW
Pressure: 30.1"   Gusts: NA
Location:  43.19°N, 103.82°W
Report Text: KCUT 270053Z AUTO 25005KT 10SM CLR 09/M04 A3010 RMK AO2 SLP176 T00891039
Loading
Personal Weather Stations






























Interactive Weather Map New forecast layout! Learn more

10-Day Weather Forecast

Advertisements
Track Severe Weather on mobile